sensor_id;sensor_type;location;lat;lon;timestamp;pressure;altitude;pressure_sealevel;temperature;humidity
71151;BME280;59071;42.138;24.768;2022-07-15T00:02:24;99614.94;;;23.70;43.70
71151;BME280;59071;42.138;24.768;2022-07-15T00:04:50;99613.91;;;23.66;43.53
71151;BME280;59071;42.138;24.768;2022-07-15T00:07:15;99606.09;;;23.65;43.24
71151;BME280;59071;42.138;24.768;2022-07-15T00:09:41;99604.69;;;23.67;43.55
71151;BME280;59071;42.138;24.768;2022-07-15T00:12:25;99606.50;;;23.53;43.80
71151;BME280;59071;42.138;24.768;2022-07-15T00:14:50;99599.53;;;23.47;43.81
71151;BME280;59071;42.138;24.768;2022-07-15T00:17:16;99614.00;;;23.61;43.77
71151;BME280;59071;42.138;24.768;2022-07-15T00:19:42;99609.38;;;23.61;43.82
71151;BME280;59071;42.138;24.768;2022-07-15T00:22:07;99606.50;;;23.53;44.03
71151;BME280;59071;42.138;24.768;2022-07-15T00:24:33;99600.94;;;23.44;44.03
71151;BME280;59071;42.138;24.768;2022-07-15T00:26:58;99599.69;;;23.55;43.92
71151;BME280;59071;42.138;24.768;2022-07-15T00:29:24;99605.03;;;23.41;44.08
71151;BME280;59071;42.138;24.768;2022-07-15T00:31:51;99604.09;;;23.32;44.25
71151;BME280;59071;42.138;24.768;2022-07-15T00:34:16;99599.75;;;23.50;43.78
71151;BME280;59071;42.138;24.768;2022-07-15T00:36:42;99606.94;;;23.60;43.69
71151;BME280;59071;42.138;24.768;2022-07-15T00:39:07;99597.25;;;23.35;44.13
71151;BME280;59071;42.138;24.768;2022-07-15T00:41:41;99606.47;;;23.34;44.43
71151;BME280;59071;42.138;24.768;2022-07-15T00:44:07;99604.72;;;23.24;44.61
71151;BME280;59071;42.138;24.768;2022-07-15T00:46:34;99601.34;;;23.13;44.72
71151;BME280;59071;42.138;24.768;2022-07-15T00:49:02;99602.09;;;23.19;45.16
71151;BME280;59071;42.138;24.768;2022-07-15T00:51:35;99597.88;;;23.08;45.10
71151;BME280;59071;42.138;24.768;2022-07-15T00:54:02;99600.41;;;23.23;44.69
71151;BME280;59071;42.138;24.768;2022-07-15T00:56:30;99599.06;;;23.20;44.83
71151;BME280;59071;42.138;24.768;2022-07-15T00:58:57;99576.03;;;23.18;44.66
71151;BME280;59071;42.138;24.768;2022-07-15T01:01:24;99589.94;;;23.11;45.18
71151;BME280;59071;42.138;24.768;2022-07-15T01:03:50;99595.19;;;23.02;45.32
71151;BME280;59071;42.138;24.768;2022-07-15T01:06:16;99595.91;;;23.13;45.20
71151;BME280;59071;42.138;24.768;2022-07-15T01:08:41;99595.44;;;23.06;45.45
71151;BME280;59071;42.138;24.768;2022-07-15T01:11:07;99585.25;;;22.93;45.67
71151;BME280;59071;42.138;24.768;2022-07-15T01:13:33;99580.75;;;22.83;46.31
71151;BME280;59071;42.138;24.768;2022-07-15T01:15:58;99588.59;;;22.84;46.04
71151;BME280;59071;42.138;24.768;2022-07-15T01:18:24;99580.41;;;22.90;45.92
71151;BME280;59071;42.138;24.768;2022-07-15T01:20:49;99591.25;;;22.90;45.95
71151;BME280;59071;42.138;24.768;2022-07-15T01:23:15;99586.81;;;22.99;45.80
71151;BME280;59071;42.138;24.768;2022-07-15T01:25:41;99583.88;;;22.95;45.99
71151;BME280;59071;42.138;24.768;2022-07-15T01:28:08;99579.38;;;22.86;46.35
71151;BME280;59071;42.138;24.768;2022-07-15T01:30:34;99581.97;;;22.72;47.02
71151;BME280;59071;42.138;24.768;2022-07-15T01:33:01;99572.38;;;22.55;47.17
71151;BME280;59071;42.138;24.768;2022-07-15T01:35:27;99576.53;;;22.48;47.84
71151;BME280;59071;42.138;24.768;2022-07-15T01:37:53;99570.56;;;22.45;47.87
71151;BME280;59071;42.138;24.768;2022-07-15T01:40:19;99576.91;;;22.36;47.82
71151;BME280;59071;42.138;24.768;2022-07-15T01:42:45;99572.41;;;22.26;48.11
71151;BME280;59071;42.138;24.768;2022-07-15T01:45:11;99569.63;;;22.31;47.87
71151;BME280;59071;42.138;24.768;2022-07-15T01:47:48;99562.88;;;22.29;47.89
71151;BME280;59071;42.138;24.768;2022-07-15T01:50:14;99570.38;;;22.37;48.09
71151;BME280;59071;42.138;24.768;2022-07-15T01:52:40;99577.44;;;22.38;47.97
71151;BME280;59071;42.138;24.768;2022-07-15T01:55:07;99583.47;;;22.30;48.58
71151;BME280;59071;42.138;24.768;2022-07-15T01:57:33;99585.16;;;22.20;48.55
71151;BME280;59071;42.138;24.768;2022-07-15T01:59:59;99582.56;;;22.05;49.16
71151;BME280;59071;42.138;24.768;2022-07-15T02:02:24;99586.84;;;22.11;49.07
71151;BME280;59071;42.138;24.768;2022-07-15T02:04:49;99602.34;;;22.05;49.58
71151;BME280;59071;42.138;24.768;2022-07-15T02:07:15;99593.03;;;22.17;49.44
71151;BME280;59071;42.138;24.768;2022-07-15T02:09:41;99596.28;;;22.48;48.55
71151;BME280;59071;42.138;24.768;2022-07-15T02:12:06;99591.22;;;22.41;48.93
71151;BME280;59071;42.138;24.768;2022-07-15T02:14:32;99601.44;;;22.15;49.80
71151;BME280;59071;42.138;24.768;2022-07-15T02:16:59;99604.31;;;21.95;50.48
71151;BME280;59071;42.138;24.768;2022-07-15T02:19:25;99598.41;;;21.88;51.12
71151;BME280;59071;42.138;24.768;2022-07-15T02:21:50;99592.66;;;21.94;50.64
71151;BME280;59071;42.138;24.768;2022-07-15T02:24:15;99593.19;;;21.96;50.38
71151;BME280;59071;42.138;24.768;2022-07-15T02:26:45;99597.78;;;22.01;50.31
71151;BME280;59071;42.138;24.768;2022-07-15T02:29:10;99596.25;;;21.90;50.49
71151;BME280;59071;42.138;24.768;2022-07-15T02:31:36;99600.91;;;21.79;50.68
71151;BME280;59071;42.138;24.768;2022-07-15T02:34:01;99598.75;;;21.76;50.79
71151;BME280;59071;42.138;24.768;2022-07-15T02:36:28;99605.03;;;21.71;51.17
71151;BME280;59071;42.138;24.768;2022-07-15T02:38:54;99601.25;;;21.67;50.56
71151;BME280;59071;42.138;24.768;2022-07-15T02:41:20;99592.31;;;21.66;50.42
71151;BME280;59071;42.138;24.768;2022-07-15T02:43:45;99603.13;;;21.72;50.54
71151;BME280;59071;42.138;24.768;2022-07-15T02:46:11;99607.44;;;21.73;50.60
71151;BME280;59071;42.138;24.768;2022-07-15T02:48:37;99603.47;;;21.60;50.63
71151;BME280;59071;42.138;24.768;2022-07-15T02:51:03;99610.19;;;21.67;51.20
71151;BME280;59071;42.138;24.768;2022-07-15T02:53:29;99605.28;;;21.75;50.61
71151;BME280;59071;42.138;24.768;2022-07-15T02:55:56;99597.50;;;21.63;50.82
71151;BME280;59071;42.138;24.768;2022-07-15T02:58:21;99608.84;;;21.65;51.60
71151;BME280;59071;42.138;24.768;2022-07-15T03:00:48;99600.75;;;21.60;51.30
71151;BME280;59071;42.138;24.768;2022-07-15T03:03:13;99600.50;;;21.56;51.17
71151;BME280;59071;42.138;24.768;2022-07-15T03:05:39;99598.13;;;21.44;52.13
71151;BME280;59071;42.138;24.768;2022-07-15T03:08:05;99606.25;;;21.50;51.57
71151;BME280;59071;42.138;24.768;2022-07-15T03:10:30;99606.78;;;22.25;49.47
71151;BME280;59071;42.138;24.768;2022-07-15T03:12:56;99603.38;;;21.70;50.72
71151;BME280;59071;42.138;24.768;2022-07-15T03:15:21;99601.56;;;21.60;51.23
71151;BME280;59071;42.138;24.768;2022-07-15T03:17:46;99602.44;;;21.45;51.40
71151;BME280;59071;42.138;24.768;2022-07-15T03:20:12;99590.28;;;21.38;51.96
71151;BME280;59071;42.138;24.768;2022-07-15T03:22:37;99593.31;;;21.21;52.87
71151;BME280;59071;42.138;24.768;2022-07-15T03:25:03;99598.47;;;21.22;53.01
71151;BME280;59071;42.138;24.768;2022-07-15T03:27:30;99592.78;;;21.29;52.73
71151;BME280;59071;42.138;24.768;2022-07-15T03:29:55;99602.44;;;21.45;51.95
71151;BME280;59071;42.138;24.768;2022-07-15T03:32:21;99594.81;;;21.58;51.45
71151;BME280;59071;42.138;24.768;2022-07-15T03:34:47;99592.53;;;22.10;49.82
71151;BME280;59071;42.138;24.768;2022-07-15T03:37:14;99599.09;;;21.64;50.45
71151;BME280;59071;42.138;24.768;2022-07-15T03:39:39;99595.16;;;21.46;51.15
71151;BME280;59071;42.138;24.768;2022-07-15T03:42:05;99597.00;;;21.56;51.01
71151;BME280;59071;42.138;24.768;2022-07-15T03:44:30;99599.53;;;21.81;50.48
71151;BME280;59071;42.138;24.768;2022-07-15T03:46:55;99599.22;;;21.88;49.50
71151;BME280;59071;42.138;24.768;2022-07-15T03:49:21;99591.25;;;22.90;46.86
71151;BME280;59071;42.138;24.768;2022-07-15T03:51:47;99601.34;;;23.51;44.84
71151;BME280;59071;42.138;24.768;2022-07-15T03:54:13;99584.75;;;24.10;43.37
71151;BME280;59071;42.138;24.768;2022-07-15T03:56:38;99597.09;;;24.68;43.08
71151;BME280;59071;42.138;24.768;2022-07-15T03:59:04;99597.41;;;25.08;42.03
71151;BME280;59071;42.138;24.768;2022-07-15T04:01:29;99597.06;;;25.51;41.22
71151;BME280;59071;42.138;24.768;2022-07-15T04:03:55;99603.03;;;25.75;40.43
71151;BME280;59071;42.138;24.768;2022-07-15T04:06:21;99598.59;;;26.16;39.83
71151;BME280;59071;42.138;24.768;2022-07-15T04:08:47;99607.38;;;26.44;39.10
71151;BME280;59071;42.138;24.768;2022-07-15T04:11:14;99591.72;;;26.81;38.14
71151;BME280;59071;42.138;24.768;2022-07-15T04:13:40;99591.16;;;27.02;37.34
71151;BME280;59071;42.138;24.768;2022-07-15T04:16:07;99600.06;;;27.34;37.18
71151;BME280;59071;42.138;24.768;2022-07-15T04:18:34;99576.31;;;27.52;36.23
71151;BME280;59071;42.138;24.768;2022-07-15T04:21:00;99598.19;;;27.69;35.52
71151;BME280;59071;42.138;24.768;2022-07-15T04:23:25;99595.94;;;27.97;35.11
71151;BME280;59071;42.138;24.768;2022-07-15T04:25:51;99592.66;;;28.39;34.48
71151;BME280;59071;42.138;24.768;2022-07-15T04:28:21;99587.16;;;28.56;34.20
71151;BME280;59071;42.138;24.768;2022-07-15T04:30:47;99594.72;;;28.89;33.55
71151;BME280;59071;42.138;24.768;2022-07-15T04:33:12;99589.41;;;29.22;33.40
71151;BME280;59071;42.138;24.768;2022-07-15T04:35:38;99589.66;;;29.59;32.29
71151;BME280;59071;42.138;24.768;2022-07-15T04:38:04;99586.94;;;29.93;31.93
71151;BME280;59071;42.138;24.768;2022-07-15T04:40:30;99594.25;;;30.22;31.57
71151;BME280;59071;42.138;24.768;2022-07-15T04:42:58;99586.78;;;30.44;31.06
71151;BME280;59071;42.138;24.768;2022-07-15T04:45:24;99588.16;;;30.37;31.21
71151;BME280;59071;42.138;24.768;2022-07-15T04:47:50;99586.63;;;30.98;30.04
71151;BME280;59071;42.138;24.768;2022-07-15T04:50:15;99594.94;;;31.26;29.81
71151;BME280;59071;42.138;24.768;2022-07-15T04:52:59;99596.66;;;31.31;29.35
71151;BME280;59071;42.138;24.768;2022-07-15T04:55:25;99598.16;;;31.53;29.17
71151;BME280;59071;42.138;24.768;2022-07-15T04:57:51;99597.75;;;31.67;28.67
71151;BME280;59071;42.138;24.768;2022-07-15T05:00:17;99602.44;;;31.94;27.98
71151;BME280;59071;42.138;24.768;2022-07-15T05:02:42;99601.13;;;32.17;27.63
71151;BME280;59071;42.138;24.768;2022-07-15T05:05:08;99593.81;;;31.80;27.86
71151;BME280;59071;42.138;24.768;2022-07-15T05:07:33;99597.66;;;32.20;27.33
71151;BME280;59071;42.138;24.768;2022-07-15T05:09:59;99612.03;;;32.57;27.01
71151;BME280;59071;42.138;24.768;2022-07-15T05:12:24;99606.56;;;33.08;26.24
71151;BME280;59071;42.138;24.768;2022-07-15T05:14:49;99611.53;;;33.54;25.73
71151;BME280;59071;42.138;24.768;2022-07-15T05:17:15;99607.16;;;33.69;25.41
71151;BME280;59071;42.138;24.768;2022-07-15T05:19:40;99606.81;;;33.55;25.48
71151;BME280;59071;42.138;24.768;2022-07-15T05:22:06;99599.38;;;33.75;25.15
71151;BME280;59071;42.138;24.768;2022-07-15T05:24:31;99603.53;;;33.84;25.65
71151;BME280;59071;42.138;24.768;2022-07-15T05:26:57;99606.81;;;34.13;25.02
71151;BME280;59071;42.138;24.768;2022-07-15T05:29:24;99611.41;;;34.48;24.99
71151;BME280;59071;42.138;24.768;2022-07-15T05:31:51;99609.97;;;33.92;24.94
71151;BME280;59071;42.138;24.768;2022-07-15T05:34:16;99607.25;;;34.35;24.84
71151;BME280;59071;42.138;24.768;2022-07-15T05:36:42;99615.94;;;34.79;24.47
71151;BME280;59071;42.138;24.768;2022-07-15T05:39:07;99617.69;;;34.91;24.30
71151;BME280;59071;42.138;24.768;2022-07-15T05:41:33;99615.44;;;35.23;23.49
71151;BME280;59071;42.138;24.768;2022-07-15T05:43:59;99611.00;;;35.46;23.20
71151;BME280;59071;42.138;24.768;2022-07-15T05:46:25;99615.00;;;35.78;22.73
71151;BME280;59071;42.138;24.768;2022-07-15T05:48:50;99613.66;;;35.99;22.75
71151;BME280;59071;42.138;24.768;2022-07-15T05:51:16;99606.09;;;35.96;23.19
71151;BME280;59071;42.138;24.768;2022-07-15T05:53:42;99611.75;;;36.07;22.84
71151;BME280;59071;42.138;24.768;2022-07-15T05:56:08;99620.03;;;35.42;23.52
71151;BME280;59071;42.138;24.768;2022-07-15T05:58:33;99622.41;;;36.05;22.92
71151;BME280;59071;42.138;24.768;2022-07-15T06:00:59;99613.28;;;36.04;23.04
71151;BME280;59071;42.138;24.768;2022-07-15T06:03:25;99625.47;;;36.30;22.91
71151;BME280;59071;42.138;24.768;2022-07-15T06:05:50;99618.41;;;36.77;22.72
71151;BME280;59071;42.138;24.768;2022-07-15T06:08:16;99617.81;;;35.25;24.00
71151;BME280;59071;42.138;24.768;2022-07-15T06:10:42;99613.22;;;34.17;25.01
71151;BME280;59071;42.138;24.768;2022-07-15T06:13:07;99617.75;;;33.86;26.20
71151;BME280;59071;42.138;24.768;2022-07-15T06:15:33;99617.75;;;33.67;26.02
71151;BME280;59071;42.138;24.768;2022-07-15T06:17:59;99614.75;;;33.76;25.76
71151;BME280;59071;42.138;24.768;2022-07-15T06:20:25;99600.22;;;33.98;25.59
71151;BME280;59071;42.138;24.768;2022-07-15T06:22:50;99600.31;;;34.91;24.69
71151;BME280;59071;42.138;24.768;2022-07-15T06:25:16;99601.13;;;34.45;25.36
71151;BME280;59071;42.138;24.768;2022-07-15T06:27:41;99601.03;;;34.18;25.83
71151;BME280;59071;42.138;24.768;2022-07-15T06:30:07;99604.94;;;34.37;25.62
71151;BME280;59071;42.138;24.768;2022-07-15T06:32:33;99602.63;;;34.19;26.09
71151;BME280;59071;42.138;24.768;2022-07-15T06:34:59;99602.75;;;34.26;25.62
71151;BME280;59071;42.138;24.768;2022-07-15T06:37:25;99599.44;;;34.40;25.58
71151;BME280;59071;42.138;24.768;2022-07-15T06:39:50;99596.81;;;34.24;25.05
71151;BME280;59071;42.138;24.768;2022-07-15T06:42:16;99600.13;;;34.57;24.80
71151;BME280;59071;42.138;24.768;2022-07-15T06:44:43;99591.13;;;34.83;24.57
71151;BME280;59071;42.138;24.768;2022-07-15T06:47:08;99587.88;;;34.77;24.92
71151;BME280;59071;42.138;24.768;2022-07-15T06:49:34;99588.28;;;34.79;24.21
71151;BME280;59071;42.138;24.768;2022-07-15T06:52:00;99589.56;;;34.85;24.80
71151;BME280;59071;42.138;24.768;2022-07-15T06:54:26;99588.53;;;34.71;24.54
71151;BME280;59071;42.138;24.768;2022-07-15T06:56:51;99581.69;;;34.88;24.17
71151;BME280;59071;42.138;24.768;2022-07-15T06:59:17;99577.25;;;34.79;23.99
71151;BME280;59071;42.138;24.768;2022-07-15T07:01:42;99583.13;;;35.04;24.14
71151;BME280;59071;42.138;24.768;2022-07-15T07:04:07;99578.38;;;35.28;24.67
71151;BME280;59071;42.138;24.768;2022-07-15T07:06:33;99579.97;;;35.29;23.93
71151;BME280;59071;42.138;24.768;2022-07-15T07:08:59;99575.47;;;35.17;24.29
71151;BME280;59071;42.138;24.768;2022-07-15T07:11:25;99575.25;;;35.07;24.20
71151;BME280;59071;42.138;24.768;2022-07-15T07:13:50;99574.69;;;35.47;24.04
71151;BME280;59071;42.138;24.768;2022-07-15T07:16:16;99578.56;;;35.42;23.70
71151;BME280;59071;42.138;24.768;2022-07-15T07:18:42;99572.34;;;35.53;23.64
71151;BME280;59071;42.138;24.768;2022-07-15T07:21:10;99579.69;;;35.38;23.92
71151;BME280;59071;42.138;24.768;2022-07-15T07:23:35;99579.81;;;35.18;24.11
71151;BME280;59071;42.138;24.768;2022-07-15T07:26:01;99569.09;;;35.43;23.85
71151;BME280;59071;42.138;24.768;2022-07-15T07:28:28;99576.41;;;35.59;24.03
71151;BME280;59071;42.138;24.768;2022-07-15T07:30:54;99563.63;;;35.51;24.32
71151;BME280;59071;42.138;24.768;2022-07-15T07:33:20;99580.38;;;35.31;23.77
71151;BME280;59071;42.138;24.768;2022-07-15T07:35:46;99575.50;;;35.81;23.38
71151;BME280;59071;42.138;24.768;2022-07-15T07:38:11;99575.59;;;35.92;23.62
71151;BME280;59071;42.138;24.768;2022-07-15T07:40:37;99574.94;;;36.03;24.13
71151;BME280;59071;42.138;24.768;2022-07-15T07:43:03;99572.34;;;36.20;23.64
71151;BME280;59071;42.138;24.768;2022-07-15T07:45:28;99570.72;;;36.16;23.91
71151;BME280;59071;42.138;24.768;2022-07-15T07:47:55;99566.22;;;36.04;23.92
71151;BME280;59071;42.138;24.768;2022-07-15T07:50:20;99577.16;;;36.24;23.31
71151;BME280;59071;42.138;24.768;2022-07-15T07:52:46;99568.44;;;36.22;23.21
71151;BME280;59071;42.138;24.768;2022-07-15T07:55:12;99559.94;;;36.48;22.59
71151;BME280;59071;42.138;24.768;2022-07-15T07:57:47;99559.38;;;36.28;23.05
71151;BME280;59071;42.138;24.768;2022-07-15T08:00:13;99562.97;;;36.32;23.58
71151;BME280;59071;42.138;24.768;2022-07-15T08:02:38;99555.16;;;36.45;23.62
71151;BME280;59071;42.138;24.768;2022-07-15T08:05:04;99564.91;;;36.76;22.63
71151;BME280;59071;42.138;24.768;2022-07-15T08:07:30;99559.91;;;36.45;23.12
71151;BME280;59071;42.138;24.768;2022-07-15T08:09:55;99561.16;;;36.51;22.97
71151;BME280;59071;42.138;24.768;2022-07-15T08:12:21;99553.19;;;36.05;23.09
71151;BME280;59071;42.138;24.768;2022-07-15T08:14:46;99548.38;;;36.35;23.17
71151;BME280;59071;42.138;24.768;2022-07-15T08:17:12;99552.56;;;36.18;22.29
71151;BME280;59071;42.138;24.768;2022-07-15T08:19:37;99549.16;;;35.98;22.21
71151;BME280;59071;42.138;24.768;2022-07-15T08:22:03;99550.66;;;35.55;23.17
71151;BME280;59071;42.138;24.768;2022-07-15T08:24:28;99541.03;;;35.75;22.77
71151;BME280;59071;42.138;24.768;2022-07-15T08:26:53;99549.41;;;35.82;22.25
71151;BME280;59071;42.138;24.768;2022-07-15T08:29:19;99542.94;;;35.71;22.37
71151;BME280;59071;42.138;24.768;2022-07-15T08:31:44;99550.59;;;35.85;23.90
71151;BME280;59071;42.138;24.768;2022-07-15T08:34:11;99549.31;;;36.13;23.07
71151;BME280;59071;42.138;24.768;2022-07-15T08:36:37;99550.06;;;36.51;22.60
71151;BME280;59071;42.138;24.768;2022-07-15T08:39:02;99544.22;;;36.59;22.10
71151;BME280;59071;42.138;24.768;2022-07-15T08:41:28;99549.06;;;36.70;22.43
71151;BME280;59071;42.138;24.768;2022-07-15T08:43:53;99547.84;;;36.67;21.94
71151;BME280;59071;42.138;24.768;2022-07-15T08:46:19;99539.28;;;36.35;22.48
71151;BME280;59071;42.138;24.768;2022-07-15T08:48:50;99547.84;;;36.67;22.23
71151;BME280;59071;42.138;24.768;2022-07-15T08:51:21;99538.66;;;36.63;21.54
71151;BME280;59071;42.138;24.768;2022-07-15T08:53:47;99528.72;;;36.10;21.69
71151;BME280;59071;42.138;24.768;2022-07-15T08:56:12;99531.31;;;36.30;21.99
71151;BME280;59071;42.138;24.768;2022-07-15T08:58:39;99525.59;;;36.60;21.11
71151;BME280;59071;42.138;24.768;2022-07-15T09:01:04;99526.78;;;36.59;20.42
71151;BME280;59071;42.138;24.768;2022-07-15T09:03:30;99533.22;;;36.70;20.48
71151;BME280;59071;42.138;24.768;2022-07-15T09:05:55;99529.31;;;36.75;21.45
71151;BME280;59071;42.138;24.768;2022-07-15T09:08:21;99524.31;;;36.47;20.84
71151;BME280;59071;42.138;24.768;2022-07-15T09:13:32;99523.38;;;35.91;21.72
71151;BME280;59071;42.138;24.768;2022-07-15T09:18:43;99511.03;;;36.70;21.29
71151;BME280;59071;42.138;24.768;2022-07-15T09:21:26;99515.09;;;36.84;21.75
71151;BME280;59071;42.138;24.768;2022-07-15T09:23:53;99514.09;;;36.54;20.86
71151;BME280;59071;42.138;24.768;2022-07-15T09:26:32;99506.84;;;35.98;20.91
71151;BME280;59071;42.138;24.768;2022-07-15T09:28:59;99506.38;;;35.89;20.99
71151;BME280;59071;42.138;24.768;2022-07-15T09:31:38;99509.94;;;35.55;21.46
71151;BME280;59071;42.138;24.768;2022-07-15T09:34:23;99507.66;;;35.61;21.37
71151;BME280;59071;42.138;24.768;2022-07-15T09:36:51;99501.31;;;35.98;20.75
71151;BME280;59071;42.138;24.768;2022-07-15T09:39:20;99498.66;;;36.09;20.95
71151;BME280;59071;42.138;24.768;2022-07-15T09:41:47;99502.28;;;36.16;20.55
71151;BME280;59071;42.138;24.768;2022-07-15T09:44:14;99498.03;;;36.26;20.41
71151;BME280;59071;42.138;24.768;2022-07-15T09:46:48;99497.69;;;36.31;19.72
71151;BME280;59071;42.138;24.768;2022-07-15T09:54:13;99485.13;;;36.45;18.91
71151;BME280;59071;42.138;24.768;2022-07-15T09:56:39;99489.47;;;36.46;18.99
71151;BME280;59071;42.138;24.768;2022-07-15T09:59:04;99481.63;;;36.55;19.54
71151;BME280;59071;42.138;24.768;2022-07-15T10:01:31;99483.66;;;36.13;19.68
71151;BME280;59071;42.138;24.768;2022-07-15T10:03:57;99482.34;;;36.00;20.13
71151;BME280;59071;42.138;24.768;2022-07-15T10:06:26;99472.03;;;35.93;20.06
71151;BME280;59071;42.138;24.768;2022-07-15T10:08:53;99481.66;;;36.62;19.93
71151;BME280;59071;42.138;24.768;2022-07-15T10:11:20;99477.75;;;37.54;19.08
71151;BME280;59071;42.138;24.768;2022-07-15T10:19:03;99476.00;;;36.44;19.79
71151;BME280;59071;42.138;24.768;2022-07-15T10:21:40;99469.75;;;37.28;18.46
71151;BME280;59071;42.138;24.768;2022-07-15T10:30:03;99450.88;;;37.94;17.89
71151;BME280;59071;42.138;24.768;2022-07-15T10:32:36;99450.50;;;37.82;18.83
71151;BME280;59071;42.138;24.768;2022-07-15T10:38:32;99442.84;;;37.39;18.67
71151;BME280;59071;42.138;24.768;2022-07-15T10:40:59;99450.16;;;36.85;19.72
71151;BME280;59071;42.138;24.768;2022-07-15T10:43:48;99438.63;;;36.75;19.69
71151;BME280;59071;42.138;24.768;2022-07-15T10:51:49;99436.59;;;37.74;18.73
71151;BME280;59071;42.138;24.768;2022-07-15T10:56:48;99422.69;;;37.49;18.11
71151;BME280;59071;42.138;24.768;2022-07-15T10:59:23;99424.63;;;36.57;19.66
71151;BME280;59071;42.138;24.768;2022-07-15T11:02:10;99421.06;;;35.57;19.79
71151;BME280;59071;42.138;24.768;2022-07-15T11:04:37;99416.78;;;36.11;19.88
71151;BME280;59071;42.138;24.768;2022-07-15T11:12:54;99410.81;;;38.39;18.48
71151;BME280;59071;42.138;24.768;2022-07-15T11:15:13;99410.03;;;38.27;17.03
71151;BME280;59071;42.138;24.768;2022-07-15T11:17:41;99402.75;;;38.80;16.77
71151;BME280;59071;42.138;24.768;2022-07-15T11:20:22;99407.69;;;39.36;17.07
71151;BME280;59071;42.138;24.768;2022-07-15T11:22:50;99401.06;;;39.08;16.47
71151;BME280;59071;42.138;24.768;2022-07-15T11:30:25;99393.38;;;37.66;18.25
71151;BME280;59071;42.138;24.768;2022-07-15T11:32:55;99402.50;;;38.03;17.65
71151;BME280;59071;42.138;24.768;2022-07-15T11:35:22;99400.47;;;38.46;17.21
71151;BME280;59071;42.138;24.768;2022-07-15T11:37:48;99394.94;;;38.21;17.38
71151;BME280;59071;42.138;24.768;2022-07-15T11:40:21;99405.91;;;38.89;17.36
71151;BME280;59071;42.138;24.768;2022-07-15T11:43:12;99390.16;;;39.46;16.20
71151;BME280;59071;42.138;24.768;2022-07-15T11:45:56;99389.66;;;39.58;16.23
71151;BME280;59071;42.138;24.768;2022-07-15T11:48:22;99391.66;;;39.54;16.47
71151;BME280;59071;42.138;24.768;2022-07-15T11:50:53;99382.81;;;39.70;16.74
71151;BME280;59071;42.138;24.768;2022-07-15T11:53:19;99393.16;;;39.66;16.49
71151;BME280;59071;42.138;24.768;2022-07-15T11:58:27;99382.22;;;39.97;15.72
71151;BME280;59071;42.138;24.768;2022-07-15T12:01:00;99386.16;;;40.41;15.90
71151;BME280;59071;42.138;24.768;2022-07-15T12:03:43;99380.97;;;40.43;16.27
71151;BME280;59071;42.138;24.768;2022-07-15T12:06:11;99379.03;;;40.71;15.80
71151;BME280;59071;42.138;24.768;2022-07-15T12:11:30;99385.88;;;42.06;15.11
71151;BME280;59071;42.138;24.768;2022-07-15T12:16:33;99371.78;;;41.89;14.26
71151;BME280;59071;42.138;24.768;2022-07-15T12:19:03;99361.72;;;41.72;14.59
71151;BME280;59071;42.138;24.768;2022-07-15T12:21:29;99366.88;;;41.46;14.50
71151;BME280;59071;42.138;24.768;2022-07-15T12:26:23;99367.69;;;41.16;15.51
71151;BME280;59071;42.138;24.768;2022-07-15T12:28:54;99364.16;;;40.12;15.50
71151;BME280;59071;42.138;24.768;2022-07-15T12:31:32;99363.06;;;38.72;16.83
71151;BME280;59071;42.138;24.768;2022-07-15T12:33:58;99361.66;;;38.18;17.37
71151;BME280;59071;42.138;24.768;2022-07-15T12:36:26;99360.84;;;38.17;17.07
71151;BME280;59071;42.138;24.768;2022-07-15T12:39:12;99350.13;;;37.40;17.99
71151;BME280;59071;42.138;24.768;2022-07-15T12:41:40;99358.09;;;37.70;18.72
71151;BME280;59071;42.138;24.768;2022-07-15T12:44:06;99353.69;;;37.94;17.24
71151;BME280;59071;42.138;24.768;2022-07-15T12:49:45;99349.78;;;37.67;19.13
71151;BME280;59071;42.138;24.768;2022-07-15T12:52:22;99342.56;;;37.33;17.82
71151;BME280;59071;42.138;24.768;2022-07-15T12:54:50;99348.53;;;37.32;18.09
71151;BME280;59071;42.138;24.768;2022-07-15T12:57:25;99349.69;;;37.24;18.15
71151;BME280;59071;42.138;24.768;2022-07-15T12:59:57;99342.16;;;37.17;18.01
71151;BME280;59071;42.138;24.768;2022-07-15T13:02:23;99342.03;;;36.77;18.85
71151;BME280;59071;42.138;24.768;2022-07-15T13:04:50;99344.47;;;37.01;19.19
71151;BME280;59071;42.138;24.768;2022-07-15T13:07:16;99337.44;;;37.25;18.87
71151;BME280;59071;42.138;24.768;2022-07-15T13:09:42;99344.63;;;37.80;18.30
71151;BME280;59071;42.138;24.768;2022-07-15T13:12:09;99345.00;;;37.85;17.35
71151;BME280;59071;42.138;24.768;2022-07-15T13:14:38;99353.69;;;37.98;18.18
71151;BME280;59071;42.138;24.768;2022-07-15T13:17:04;99346.97;;;37.99;17.73
71151;BME280;59071;42.138;24.768;2022-07-15T13:19:31;99341.03;;;37.86;18.62
71151;BME280;59071;42.138;24.768;2022-07-15T13:21:58;99336.25;;;37.87;18.07
71151;BME280;59071;42.138;24.768;2022-07-15T13:24:23;99339.03;;;37.83;17.66
71151;BME280;59071;42.138;24.768;2022-07-15T13:26:49;99338.66;;;37.85;17.49
71151;BME280;59071;42.138;24.768;2022-07-15T13:29:14;99341.03;;;37.97;17.47
71151;BME280;59071;42.138;24.768;2022-07-15T13:31:40;99335.47;;;37.93;17.72
71151;BME280;59071;42.138;24.768;2022-07-15T13:34:05;99337.06;;;37.80;18.64
71151;BME280;59071;42.138;24.768;2022-07-15T13:36:31;99324.78;;;37.70;18.31
71151;BME280;59071;42.138;24.768;2022-07-15T13:38:57;99313.28;;;37.75;18.53
71151;BME280;59071;42.138;24.768;2022-07-15T13:41:22;99327.97;;;37.72;18.81
71151;BME280;59071;42.138;24.768;2022-07-15T13:43:47;99322.41;;;37.51;18.81
71151;BME280;59071;42.138;24.768;2022-07-15T13:46:13;99325.16;;;37.83;18.93
71151;BME280;59071;42.138;24.768;2022-07-15T13:48:38;99332.31;;;37.81;18.41